Time;durP1;ratioP1;P1;durP2;ratioP2;P2;SDS_P1;SDS_P2;PMS_P1;PMS_P2;Temp;Humidity;BMP_temperature;BMP_pressure;BME280_temperature;BME280_humidity;BME280_pressure;Samples;Min_cycle;Max_cycle;Signal;HPM_P1;HPM_P2
2023/06/06 00:00:21;;;;;;;1.13;1.03;;;;;;;16.42;66.36;100266.53;5012187;28;20500;-48
2023/06/06 00:02:48;;;;;;;1.17;1.07;;;;;;;16.22;67.50;100272.94;5012014;28;20452;-49
2023/06/06 00:05:16;;;;;;;1.97;1.00;;;;;;;16.37;67.25;100270.41;5012027;28;20448;-49
2023/06/06 00:07:45;;;;;;;1.50;1.33;;;;;;;16.27;67.14;100272.69;5012130;28;20457;-49
2023/06/06 00:10:16;;;;;;;10.13;1.37;;;;;;;16.90;65.37;100270.25;5012378;28;20564;-48
2023/06/06 00:12:45;;;;;;;1.20;0.80;;;;;;;16.50;66.17;100274.19;5012172;28;20555;-48
2023/06/06 00:15:13;;;;;;;2.50;1.77;;;;;;;16.43;66.92;100275.44;5011951;28;20492;-49
2023/06/06 00:17:41;;;;;;;3.47;1.30;;;;;;;16.42;67.24;100268.34;5011775;28;20830;-48
2023/06/06 00:20:09;;;;;;;1.23;1.13;;;;;;;16.33;68.01;100272.41;5013052;28;20492;-48
2023/06/06 00:22:36;;;;;;;0.80;0.70;;;;;;;16.43;68.06;100278.13;5015624;28;20821;-49
2023/06/06 00:25:04;;;;;;;1.60;1.50;;;;;;;16.18;68.14;100265.16;5015494;28;20448;-48
2023/06/06 00:27:33;;;;;;;1.33;1.23;;;;;;;16.16;68.95;100277.75;5015226;28;20942;-49
2023/06/06 00:29:59;;;;;;;2.50;1.60;;;;;;;16.14;69.67;100274.28;5015183;28;20469;-49
2023/06/06 00:32:27;;;;;;;9.53;1.50;;;;;;;16.24;69.92;100276.41;5015211;28;20484;-48
2023/06/06 00:34:56;;;;;;;1.37;1.03;;;;;;;16.30;69.87;100272.53;5015165;28;20958;-48
2023/06/06 00:37:23;;;;;;;2.10;2.00;;;;;;;15.92;71.85;100279.91;5015419;28;20548;-48
2023/06/06 00:39:50;;;;;;;7.40;1.37;;;;;;;16.14;71.08;100272.47;5014863;28;20830;-48
2023/06/06 00:42:16;;;;;;;1.13;0.80;;;;;;;16.33;70.83;100276.91;5015144;28;20449;-48
2023/06/06 00:44:43;;;;;;;0.97;0.80;;;;;;;16.36;70.28;100274.91;5014768;28;20459;-49
2023/06/06 00:47:11;;;;;;;1.60;1.10;;;;;;;16.22;71.22;100272.09;5015295;28;20452;-48
2023/06/06 00:49:38;;;;;;;1.50;1.40;;;;;;;16.17;71.83;100276.78;5014921;28;20451;-48
2023/06/06 00:52:05;;;;;;;1.43;1.33;;;;;;;16.22;72.17;100272.94;4997428;28;20520;-50
2023/06/06 00:54:33;;;;;;;1.23;1.13;;;;;;;16.25;72.43;100278.16;5014772;28;20510;-48
2023/06/06 00:57:02;;;;;;;3.07;1.47;;;;;;;16.02;73.53;100267.72;5014956;28;20453;-49
2023/06/06 00:59:29;;;;;;;1.83;1.73;;;;;;;16.02;74.58;100275.78;5014367;28;20949;-49
2023/06/06 01:01:56;;;;;;;1.73;1.63;;;;;;;15.95;74.51;100272.56;5014709;28;20496;-48
2023/06/06 01:04:25;;;;;;;1.30;1.20;;;;;;;15.73;75.79;100279.06;5014679;28;20476;-48
2023/06/06 01:06:51;;;;;;;6.33;2.20;;;;;;;15.75;76.06;100282.53;5014689;28;20448;-49
2023/06/06 01:09:19;;;;;;;1.97;1.87;;;;;;;15.62;76.44;100284.94;5014494;28;20478;-48
2023/06/06 01:12:16;;;;;;;0.97;0.83;;;;;;;15.71;75.83;100279.16;5014239;28;20479;-48
2023/06/06 01:15:05;;;;;;;1.17;1.03;;;;;;;15.70;75.80;100278.28;5014315;28;20489;-49
2023/06/06 01:17:33;;;;;;;5.17;1.03;;;;;;;15.73;75.89;100276.38;5014513;28;20452;-49
2023/06/06 01:20:00;;;;;;;1.47;1.17;;;;;;;15.72;75.68;100280.88;5013945;28;20496;-49
2023/06/06 01:22:28;;;;;;;1.30;0.90;;;;;;;15.58;76.49;100286.03;5014140;28;20532;-50
2023/06/06 01:24:56;;;;;;;1.30;0.83;;;;;;;15.53;76.52;100286.25;5014108;28;20452;-49
2023/06/06 01:27:23;;;;;;;1.80;1.70;;;;;;;15.24;77.94;100282.31;5014283;28;20448;-48
2023/06/06 01:29:50;;;;;;;2.60;2.40;;;;;;;15.33;77.91;100287.22;5013950;28;20441;-48
2023/06/06 01:32:32;;;;;;;0.90;0.80;;;;;;;15.11;78.41;100282.03;5013755;28;20539;-48
2023/06/06 01:35:13;;;;;;;2.60;1.00;;;;;;;15.21;78.40;100287.78;5013996;28;20449;-48
2023/06/06 01:38:07;;;;;;;1.60;1.20;;;;;;;15.12;78.89;100293.59;4996826;28;20495;-49
2023/06/06 01:40:35;;;;;;;2.13;1.37;;;;;;;14.89;80.11;100291.13;5003283;28;20550;-49
2023/06/06 01:43:03;;;;;;;0.80;0.70;;;;;;;15.09;79.72;100299.13;5013830;28;20543;-48
2023/06/06 01:45:32;;;;;;;1.27;1.17;;;;;;;14.93;79.53;100298.94;5014077;28;20445;-49
2023/06/06 01:47:59;;;;;;;1.27;1.17;;;;;;;14.87;79.67;100301.03;5013905;28;20543;-48
2023/06/06 01:50:26;;;;;;;1.80;1.33;;;;;;;14.97;79.35;100297.88;5013661;28;20483;-48
2023/06/06 01:52:54;;;;;;;1.07;0.97;;;;;;;14.90;80.07;100298.22;5013862;28;20495;-48
2023/06/06 01:55:22;;;;;;;0.70;0.60;;;;;;;14.81;80.17;100310.22;5013628;28;20843;-48
2023/06/06 01:57:48;;;;;;;1.33;1.10;;;;;;;14.73;80.93;100313.25;5013491;28;20489;-49
2023/06/06 02:00:16;;;;;;;1.57;1.10;;;;;;;14.72;80.23;100314.19;4996269;28;20500;-47
2023/06/06 02:02:42;;;;;;;3.00;1.03;;;;;;;14.65;80.87;100312.72;5013532;28;20796;-48
2023/06/06 02:05:09;;;;;;;1.07;1.00;;;;;;;14.67;81.36;100305.50;5013500;28;20961;-49
2023/06/06 02:07:37;;;;;;;1.20;1.10;;;;;;;14.51;81.00;100307.09;5013814;28;20452;-49
2023/06/06 02:10:05;;;;;;;1.00;0.83;;;;;;;14.46;81.60;100309.13;5013253;28;20540;-49
2023/06/06 02:12:32;;;;;;;1.00;0.90;;;;;;;14.36;82.39;100310.44;5013222;28;20536;-49
2023/06/06 02:15:00;;;;;;;1.00;0.70;;;;;;;14.67;80.97;100308.19;5013447;28;20460;-48
2023/06/06 02:17:26;;;;;;;3.13;0.90;;;;;;;14.48;81.88;100305.44;5013313;28;20512;-48
2023/06/06 02:19:53;;;;;;;1.27;1.17;;;;;;;14.49;82.46;100307.19;5013156;28;20503;-49
2023/06/06 02:22:19;;;;;;;0.87;0.70;;;;;;;14.31;82.15;100309.78;5013709;28;20495;-48
2023/06/06 02:24:46;;;;;;;3.87;2.03;;;;;;;14.18;82.60;100302.28;5013056;28;20457;-47
2023/06/06 02:27:13;;;;;;;0.70;0.67;;;;;;;14.07;83.74;100301.00;5013150;28;20453;-48
2023/06/06 02:29:40;;;;;;;0.90;0.83;;;;;;;14.11;83.52;100310.59;5013156;28;20460;-48
2023/06/06 02:32:06;;;;;;;2.13;1.10;;;;;;;14.12;83.12;100305.22;5013028;28;20449;-50
2023/06/06 02:34:33;;;;;;;1.47;1.37;;;;;;;14.18;82.79;100306.75;5012996;28;20811;-48
2023/06/06 02:37:00;;;;;;;1.00;0.80;;;;;;;14.26;83.12;100311.78;5012774;28;20491;-49
2023/06/06 02:39:26;;;;;;;2.60;0.63;;;;;;;14.23;82.86;100316.31;5012808;28;20452;-48
2023/06/06 02:41:52;;;;;;;1.73;1.27;;;;;;;14.10;83.76;100308.88;5012362;28;20475;-48
2023/06/06 02:44:19;;;;;;;1.40;1.30;;;;;;;14.10;83.65;100314.22;5012948;28;20839;-48
2023/06/06 02:46:46;;;;;;;1.47;1.37;;;;;;;13.92;84.33;100308.72;5012850;28;20874;-48
2023/06/06 02:49:13;;;;;;;1.00;0.90;;;;;;;14.14;83.86;100316.72;5013107;28;20449;-48
2023/06/06 02:51:40;;;;;;;0.70;0.70;;;;;;;13.99;84.43;100306.69;5012564;28;20839;-49
2023/06/06 02:54:07;;;;;;;2.03;1.80;;;;;;;13.88;85.18;100307.13;5013025;28;20444;-49
2023/06/06 02:56:33;;;;;;;11.30;1.60;;;;;;;13.95;84.49;100307.72;5012810;28;20457;-48
2023/06/06 02:59:00;;;;;;;5.27;1.53;;;;;;;13.78;85.73;100312.91;5012723;28;20456;-49
2023/06/06 03:01:26;;;;;;;2.43;1.57;;;;;;;13.78;85.60;100304.91;5012486;28;20994;-48
2023/06/06 03:03:53;;;;;;;20.87;1.23;;;;;;;13.73;85.05;100313.13;5012399;28;20456;-48
2023/06/06 03:06:22;;;;;;;0.70;0.60;;;;;;;13.60;86.52;100318.09;5012550;28;20484;-48
2023/06/06 03:08:50;;;;;;;1.07;0.83;;;;;;;13.62;86.06;100316.22;5012404;28;20452;-49
2023/06/06 03:11:16;;;;;;;1.43;1.33;;;;;;;13.61;86.22;100314.47;5012458;28;20981;-48
2023/06/06 03:13:45;;;;;;;6.47;1.30;;;;;;;13.42;87.20;100313.47;5012560;28;20448;-49
2023/06/06 03:16:15;;;;;;;1.67;1.53;;;;;;;13.50;87.29;100315.84;5012590;28;20452;-49
2023/06/06 03:18:46;;;;;;;1.27;1.17;;;;;;;13.45;87.22;100316.03;5012824;28;20480;-49
2023/06/06 03:21:14;;;;;;;4.00;1.20;;;;;;;13.45;87.35;100317.84;5012410;28;20484;-48
2023/06/06 03:23:40;;;;;;;1.67;1.20;;;;;;;13.28;88.04;100323.81;5012466;28;20452;-48
2023/06/06 03:26:07;;;;;;;1.47;1.10;;;;;;;13.32;88.09;100318.31;5012443;28;20449;-48
2023/06/06 03:28:34;;;;;;;1.77;1.67;;;;;;;13.47;87.46;100323.97;5012329;28;20492;-48
2023/06/06 03:31:05;;;;;;;1.73;1.37;;;;;;;13.43;87.52;100327.69;5012438;28;20526;-48
2023/06/06 03:33:32;;;;;;;1.03;0.70;;;;;;;13.40;87.83;100330.47;5012229;28;20487;-48
2023/06/06 03:35:59;;;;;;;1.60;1.43;;;;;;;13.39;87.81;100331.41;5012540;28;20569;-48
2023/06/06 03:38:25;;;;;;;2.40;1.07;;;;;;;13.34;87.75;100336.94;5012350;28;20539;-47
2023/06/06 03:40:52;;;;;;;0.97;0.87;;;;;;;13.31;88.48;100337.94;5012251;28;20508;-48
2023/06/06 03:43:18;;;;;;;3.17;1.20;;;;;;;13.26;88.50;100339.91;5012278;28;20453;-48
2023/06/06 03:45:45;;;;;;;2.77;1.50;;;;;;;13.21;88.23;100339.22;5012360;28;20464;-48
2023/06/06 03:48:12;;;;;;;2.33;2.13;;;;;;;13.23;88.87;100345.38;5011990;28;20475;-48
2023/06/06 03:50:39;;;;;;;5.47;1.67;;;;;;;13.20;88.82;100344.63;5011961;28;20464;-48
2023/06/06 03:53:06;;;;;;;4.63;1.10;;;;;;;13.13;88.97;100343.94;5012271;28;20444;-48
2023/06/06 03:55:34;;;;;;;2.13;1.10;;;;;;;13.22;88.72;100332.06;5015737;28;20499;-48
2023/06/06 03:58:03;;;;;;;2.70;1.97;;;;;;;13.22;88.24;100343.63;5015947;28;20818;-48
2023/06/06 04:00:30;;;;;;;1.27;1.17;;;;;;;13.41;87.92;100345.56;5015469;28;20535;-48
2023/06/06 04:02:57;;;;;;;0.80;0.80;;;;;;;13.31;87.88;100337.94;5015978;28;20444;-47
2023/06/06 04:05:23;;;;;;;1.83;1.47;;;;;;;13.17;88.87;100334.91;5015924;28;20487;-48
2023/06/06 04:07:50;;;;;;;1.63;1.53;;;;;;;13.16;88.93;100334.97;5002595;28;20934;-47
2023/06/06 04:10:18;;;;;;;2.33;1.50;;;;;;;13.13;89.17;100337.72;5015850;28;20520;-49
2023/06/06 04:12:45;;;;;;;1.63;1.53;;;;;;;13.09;89.67;100339.66;5002773;28;20487;-48
2023/06/06 04:15:11;;;;;;;3.10;1.40;;;;;;;13.11;90.63;100348.47;5015320;28;20459;-48
2023/06/06 04:17:38;;;;;;;1.57;1.23;;;;;;;13.50;89.02;100342.53;5015626;28;20518;-48
2023/06/06 04:20:08;;;;;;;1.67;1.30;;;;;;;13.83;87.36;100350.97;5015318;28;20488;-49
2023/06/06 04:22:38;;;;;;;4.07;1.97;;;;;;;13.77;87.54;100345.91;5015574;28;20476;-48
2023/06/06 04:25:05;;;;;;;1.83;1.47;;;;;;;13.81;87.62;100350.19;5015294;28;20520;-48
2023/06/06 04:27:31;;;;;;;1.47;1.37;;;;;;;13.87;88.03;100344.59;5015132;28;20480;-48
2023/06/06 04:29:58;;;;;;;1.83;1.73;;;;;;;14.26;87.11;100342.06;5015007;28;20468;-48
2023/06/06 04:32:25;;;;;;;2.33;2.23;;;;;;;14.72;85.07;100346.28;5015373;28;20448;-49
2023/06/06 04:34:52;;;;;;;3.13;1.90;;;;;;;15.14;83.60;100347.94;5015096;28;20448;-47
2023/06/06 04:37:19;;;;;;;4.93;1.57;;;;;;;15.49;82.31;100357.03;5015210;28;20899;-49
2023/06/06 04:39:52;;;;;;;1.80;1.70;;;;;;;15.98;80.48;100358.19;5014886;28;20453;-48
2023/06/06 04:42:25;;;;;;;1.50;0.87;;;;;;;16.25;78.52;100357.75;5014822;28;20492;-49
2023/06/06 04:44:51;;;;;;;1.70;1.13;;;;;;;16.24;77.99;100362.25;4997697;28;20452;-48
2023/06/06 04:47:19;;;;;;;3.40;1.80;;;;;;;16.51;76.75;100359.09;5015239;28;20449;-48
2023/06/06 04:49:47;;;;;;;1.43;1.33;;;;;;;16.85;75.82;100353.72;5014622;28;20859;-48
2023/06/06 04:52:15;;;;;;;8.30;2.20;;;;;;;16.96;74.98;100353.13;4997634;28;20528;-48
2023/06/06 04:54:45;;;;;;;3.60;2.20;;;;;;;17.28;72.85;100356.78;5014631;28;20448;-49
2023/06/06 04:57:15;;;;;;;6.17;1.87;;;;;;;17.47;72.61;100357.47;5015245;28;20445;-48
2023/06/06 04:59:53;;;;;;;7.50;1.70;;;;;;;17.33;72.16;100364.56;5015144;28;20445;-48
2023/06/06 05:02:21;;;;;;;20.53;1.93;;;;;;;17.22;72.98;100353.53;5014647;28;20549;-47
2023/06/06 05:04:54;;;;;;;4.30;1.57;;;;;;;17.23;72.86;100363.34;5014375;28;20464;-48
2023/06/06 05:07:24;;;;;;;4.00;2.03;;;;;;;17.57;71.85;100356.97;5014202;28;20465;-48
2023/06/06 05:09:52;;;;;;;2.80;2.50;;;;;;;17.57;71.18;100351.59;5014731;28;20480;-48
2023/06/06 05:12:19;;;;;;;2.77;2.57;;;;;;;17.31;72.62;100353.91;5014672;28;20456;-48
2023/06/06 05:14:46;;;;;;;1.70;1.60;;;;;;;17.58;71.82;100356.00;5014634;28;20448;-49
2023/06/06 05:17:20;;;;;;;5.00;1.20;;;;;;;17.85;71.14;100357.16;5014576;28;20510;-48
2023/06/06 05:19:47;;;;;;;1.47;1.37;;;;;;;18.13;70.17;100345.66;5014713;28;20554;-48
2023/06/06 05:22:14;;;;;;;2.50;1.90;;;;;;;18.16;70.10;100350.84;5014534;28;20496;-47
2023/06/06 05:24:42;;;;;;;1.50;0.93;;;;;;;18.25;69.01;100357.53;5014399;28;20476;-48
2023/06/06 05:27:08;;;;;;;4.53;2.53;;;;;;;18.55;67.97;100358.38;5014177;28;20491;-48
2023/06/06 05:29:36;;;;;;;2.80;1.93;;;;;;;18.64;68.11;100362.38;5014238;28;20455;-48
2023/06/06 05:32:02;;;;;;;2.50;2.10;;;;;;;19.00;66.40;100361.94;5013973;28;21027;-48
2023/06/06 05:34:30;;;;;;;4.50;2.27;;;;;;;19.06;65.97;100369.66;5013878;28;20460;-49
2023/06/06 05:36:56;;;;;;;2.23;1.60;;;;;;;18.98;65.97;100368.38;5014151;28;20511;-48
2023/06/06 05:39:24;;;;;;;2.93;2.70;;;;;;;19.20;64.83;100364.25;5013845;28;20453;-50
2023/06/06 05:41:54;;;;;;;2.77;2.50;;;;;;;19.13;65.29;100364.72;5013650;28;20503;-48
2023/06/06 05:44:24;;;;;;;3.03;1.43;;;;;;;19.27;65.08;100371.94;5013642;28;20532;-48
2023/06/06 05:46:54;;;;;;;4.00;2.03;;;;;;;19.51;64.82;100365.84;5013713;28;20833;-49
2023/06/06 05:49:22;;;;;;;4.93;2.30;;;;;;;19.29;64.46;100367.31;5013583;28;20476;-49
2023/06/06 05:51:49;;;;;;;1.50;1.40;;;;;;;19.26;65.52;100373.78;5013806;28;20571;-49
2023/06/06 05:54:16;;;;;;;1.63;1.40;;;;;;;19.59;63.80;100367.22;5013514;28;21040;-48
2023/06/06 05:56:43;;;;;;;2.80;2.40;;;;;;;19.89;63.27;100367.06;5013432;28;20503;-49
2023/06/06 05:59:09;;;;;;;2.80;1.70;;;;;;;20.24;62.74;100360.16;5013483;28;20452;-49
2023/06/06 06:01:39;;;;;;;1.87;1.77;;;;;;;20.10;63.26;100377.28;5013040;28;20493;-49
2023/06/06 06:04:07;;;;;;;2.43;2.23;;;;;;;20.19;63.30;100374.94;5013538;28;20449;-49
2023/06/06 06:06:37;;;;;;;9.03;1.57;;;;;;;19.91;64.09;100374.09;5014183;28;20836;-52
2023/06/06 06:09:05;;;;;;;7.13;2.60;;;;;;;20.07;63.25;100374.81;5015825;28;20456;-51
2023/06/06 06:11:31;;;;;;;1.90;1.77;;;;;;;20.20;63.32;100376.69;5016002;28;20503;-52
2023/06/06 06:13:58;;;;;;;1.90;1.50;;;;;;;20.24;63.47;100379.06;5016000;28;20895;-51
2023/06/06 06:16:25;;;;;;;4.70;1.37;;;;;;;20.65;61.53;100380.81;5016728;28;20452;-52
2023/06/06 06:18:52;;;;;;;4.40;1.83;;;;;;;21.00;60.39;100381.94;5016968;28;20494;-52
2023/06/06 06:21:19;;;;;;;2.53;2.33;;;;;;;20.83;61.10;100374.16;5015970;28;20496;-52
2023/06/06 06:23:47;;;;;;;2.20;2.03;;;;;;;21.18;59.44;100366.25;5016760;28;20452;-52
2023/06/06 06:26:14;;;;;;;2.03;1.93;;;;;;;21.55;58.87;100372.59;5017395;28;20526;-51
2023/06/06 06:28:40;;;;;;;4.80;2.03;;;;;;;21.37;59.42;100362.25;5018128;28;20449;-52
2023/06/06 06:31:07;;;;;;;3.73;2.27;;;;;;;21.38;59.18;100364.88;5017437;28;20471;-52
2023/06/06 06:33:34;;;;;;;1.53;1.40;;;;;;;21.59;60.64;100362.41;5017206;28;20452;-51
2023/06/06 06:36:01;;;;;;;1.70;1.60;;;;;;;21.79;60.31;100367.25;5017262;28;20823;-51
2023/06/06 06:38:27;;;;;;;3.03;1.57;;;;;;;22.04;58.67;100382.50;5017606;28;20820;-51
2023/06/06 06:40:54;;;;;;;1.93;1.83;;;;;;;21.59;59.28;100373.25;5017931;28;20492;-51
2023/06/06 06:43:21;;;;;;;2.90;2.70;;;;;;;21.29;60.07;100376.34;5000889;28;20456;-52
2023/06/06 06:45:47;;;;;;;2.10;2.00;;;;;;;21.92;59.24;100375.28;5017776;28;20457;-52
2023/06/06 06:48:15;;;;;;;3.90;2.13;;;;;;;22.34;57.08;100383.91;5018214;28;20460;-52
2023/06/06 06:50:42;;;;;;;1.97;1.87;;;;;;;21.96;58.13;100374.09;5017777;28;20559;-52
2023/06/06 06:53:09;;;;;;;2.30;2.20;;;;;;;22.17;58.76;100386.06;5018571;28;20457;-51
2023/06/06 06:55:38;;;;;;;3.17;2.17;;;;;;;22.27;57.01;100377.25;5017945;28;20481;-51
2023/06/06 06:58:06;;;;;;;2.03;1.93;;;;;;;21.83;58.72;100360.63;5018219;28;20468;-51
2023/06/06 07:00:33;;;;;;;7.93;2.20;;;;;;;22.26;57.42;100378.22;5017997;28;20468;-51
2023/06/06 07:03:03;;;;;;;3.73;1.77;;;;;;;22.49;57.54;100377.34;5017662;28;20492;-52
2023/06/06 07:05:30;;;;;;;1.87;1.77;;;;;;;22.38;56.94;100369.16;5016738;28;20535;-51
2023/06/06 07:07:57;;;;;;;1.10;1.00;;;;;;;22.40;57.81;100375.34;5017073;28;20460;-52
2023/06/06 07:10:25;;;;;;;2.20;2.00;;;;;;;22.24;57.57;100381.06;5017562;28;20472;-52
2023/06/06 07:12:52;;;;;;;1.37;1.27;;;;;;;22.54;57.25;100385.13;5017834;28;20495;-52
2023/06/06 07:15:19;;;;;;;2.17;1.57;;;;;;;22.35;57.39;100366.69;5017375;28;20452;-52
2023/06/06 07:17:49;;;;;;;2.00;1.90;;;;;;;22.13;57.16;100371.03;5018516;28;20453;-52
2023/06/06 07:20:21;;;;;;;1.73;1.40;;;;;;;22.63;56.97;100371.72;5017444;28;20480;-52
2023/06/06 07:22:50;;;;;;;5.57;1.93;;;;;;;23.22;55.62;100387.03;5017957;28;20604;-52
2023/06/06 07:25:17;;;;;;;18.33;2.10;;;;;;;23.47;53.33;100384.06;5018013;28;20453;-51
2023/06/06 07:27:43;;;;;;;1.27;1.17;;;;;;;23.20;54.48;100387.16;5018820;28;20456;-52
2023/06/06 07:30:14;;;;;;;4.40;1.80;;;;;;;23.45;54.93;100386.03;5021763;28;20498;-52
2023/06/06 07:32:46;;;;;;;2.50;1.90;;;;;;;23.15;55.37;100383.06;5022571;28;20449;-51
2023/06/06 07:35:15;;;;;;;3.70;2.20;;;;;;;23.29;54.82;100374.69;5022497;28;20448;-52
2023/06/06 07:37:42;;;;;;;2.73;1.60;;;;;;;23.25;54.87;100370.50;5022406;28;20483;-52
2023/06/06 07:40:11;;;;;;;16.63;1.60;;;;;;;23.42;55.06;100379.97;5021727;28;20472;-51
2023/06/06 07:42:41;;;;;;;1.87;1.77;;;;;;;23.53;54.55;100372.69;5022423;28;20483;-50
2023/06/06 07:45:09;;;;;;;2.13;1.70;;;;;;;23.59;54.49;100371.41;5022629;28;20520;-51
2023/06/06 07:47:36;;;;;;;9.07;1.90;;;;;;;24.12;53.77;100374.22;5022075;28;20540;-51
2023/06/06 07:50:03;;;;;;;1.83;1.73;;;;;;;24.09;52.91;100363.63;5022860;28;20468;-51
2023/06/06 07:52:33;;;;;;;2.10;1.77;;;;;;;23.89;53.02;100366.16;5022871;28;20448;-51
2023/06/06 07:55:00;;;;;;;1.20;1.10;;;;;;;24.16;52.38;100365.69;5022242;28;20461;-52
2023/06/06 07:57:27;;;;;;;4.53;2.37;;;;;;;23.97;52.10;100364.63;5022581;28;20452;-50
2023/06/06 07:59:54;;;;;;;11.40;2.83;;;;;;;24.27;51.94;100367.53;5022623;28;20464;-51
2023/06/06 08:02:20;;;;;;;3.80;1.73;;;;;;;24.39;52.40;100355.63;5022397;28;20492;-52
2023/06/06 08:04:47;;;;;;;3.93;1.57;;;;;;;23.81;53.27;100362.34;5022842;28;20452;-52
2023/06/06 08:07:14;;;;;;;14.10;2.20;;;;;;;24.49;51.93;100364.72;5022365;28;20957;-52
2023/06/06 08:09:42;;;;;;;1.40;1.00;;;;;;;24.56;51.49;100361.50;5023239;28;20453;-51
2023/06/06 08:12:10;;;;;;;5.13;2.30;;;;;;;24.78;51.43;100364.94;5022051;28;20887;-51
2023/06/06 08:14:37;;;;;;;12.67;1.60;;;;;;;24.18;50.94;100363.72;5022692;28;20827;-51
2023/06/06 08:17:05;;;;;;;4.70;2.07;;;;;;;24.41;52.28;100352.78;5021149;28;20968;-52
2023/06/06 08:19:32;;;;;;;1.90;1.80;;;;;;;24.42;51.49;100360.81;5020809;28;20479;-52
2023/06/06 08:21:58;;;;;;;3.37;1.50;;;;;;;24.82;51.34;100362.81;5021913;28;21630;-52
2023/06/06 08:24:25;;;;;;;2.50;1.53;;;;;;;24.34;50.81;100363.31;5021757;28;20448;-52
2023/06/06 08:26:51;;;;;;;2.80;2.60;;;;;;;24.73;50.03;100356.31;5021432;28;20809;-51
2023/06/06 08:29:18;;;;;;;1.23;1.13;;;;;;;25.12;49.84;100356.59;5020985;28;20510;-52
2023/06/06 08:31:45;;;;;;;2.73;1.43;;;;;;;24.88;50.34;100366.84;5020601;28;20468;-51
2023/06/06 08:34:13;;;;;;;3.27;2.20;;;;;;;25.00;49.74;100357.63;5022065;28;20452;-52
2023/06/06 08:36:40;;;;;;;1.90;1.80;;;;;;;24.49;49.72;100363.84;5004535;28;20453;-51
2023/06/06 08:39:06;;;;;;;1.63;1.53;;;;;;;24.40;49.10;100364.66;5021573;28;20449;-52
2023/06/06 08:41:33;;;;;;;2.43;2.23;;;;;;;24.65;48.65;100352.53;5019550;28;20496;-50
2023/06/06 08:44:03;;;;;;;2.57;2.03;;;;;;;25.14;47.06;100353.72;5022502;28;20452;-51
2023/06/06 08:46:33;;;;;;;1.50;1.40;;;;;;;25.48;45.54;100359.72;5021510;28;20479;-52
2023/06/06 08:49:04;;;;;;;4.87;1.93;;;;;;;24.48;46.13;100352.13;5021509;28;20447;-52
2023/06/06 08:51:31;;;;;;;2.10;1.90;;;;;;;25.00;43.53;100353.09;5020763;28;20468;-51
2023/06/06 08:53:59;;;;;;;2.63;1.73;;;;;;;25.21;42.39;100358.47;5021074;28;20448;-52
2023/06/06 08:56:26;;;;;;;1.00;0.90;;;;;;;24.98;42.88;100357.75;5016261;28;20453;-52
2023/06/06 08:58:53;;;;;;;1.60;1.50;;;;;;;24.88;43.09;100354.13;5020569;28;20480;-52
2023/06/06 09:01:21;;;;;;;3.83;2.07;;;;;;;24.84;42.87;100358.09;5020320;28;20480;-52
2023/06/06 09:03:48;;;;;;;2.10;1.90;;;;;;;24.91;42.42;100355.69;5020342;28;20802;-51
2023/06/06 09:06:17;;;;;;;8.30;1.67;;;;;;;25.19;43.57;100349.59;5007816;28;20488;-51
2023/06/06 09:08:44;;;;;;;1.40;1.20;;;;;;;25.27;42.36;100351.66;5021236;28;20453;-50
2023/06/06 09:11:11;;;;;;;2.50;2.40;;;;;;;25.18;42.31;100358.75;5020615;28;20484;-52
2023/06/06 09:13:42;;;;;;;2.07;1.70;;;;;;;25.33;42.51;100351.09;5020826;28;20540;-51
2023/06/06 09:16:08;;;;;;;1.30;1.20;;;;;;;25.49;42.83;100348.69;5020700;28;20544;-52
2023/06/06 09:18:35;;;;;;;3.40;1.43;;;;;;;25.84;42.36;100345.53;5020708;28;20448;-52
2023/06/06 09:21:02;;;;;;;2.03;1.93;;;;;;;25.03;43.87;100350.09;5020665;28;20473;-51
2023/06/06 09:23:32;;;;;;;2.43;1.47;;;;;;;25.49;43.23;100358.72;5020241;28;20538;-50
2023/06/06 09:25:59;;;;;;;2.03;1.50;;;;;;;25.88;43.83;100346.13;5020465;28;20445;-51
2023/06/06 09:28:36;;;;;;;5.70;2.37;;;;;;;25.86;43.43;100349.00;5020617;28;20896;-52
2023/06/06 09:31:27;;;;;;;2.17;1.97;;;;;;;25.68;43.66;100342.47;5020334;28;20468;-52
2023/06/06 09:33:55;;;;;;;1.47;1.37;;;;;;;25.66;43.67;100344.47;5007333;28;20958;-52
2023/06/06 09:36:24;;;;;;;6.70;1.90;;;;;;;25.83;43.79;100337.53;5019566;28;20506;-52
2023/06/06 09:38:52;;;;;;;1.87;1.77;;;;;;;26.42;43.59;100334.72;5019046;28;20448;-51
2023/06/06 09:41:19;;;;;;;8.53;2.33;;;;;;;26.81;41.98;100338.25;5018204;28;20483;-52
2023/06/06 09:43:47;;;;;;;1.33;1.20;;;;;;;26.79;42.36;100344.88;5018608;28;20453;-52
2023/06/06 09:46:17;;;;;;;1.83;1.73;;;;;;;26.65;42.95;100337.13;5018547;28;20463;-51
2023/06/06 09:49:00;;;;;;;1.87;1.60;;;;;;;26.73;42.82;100340.00;5017766;28;20445;-51
2023/06/06 09:51:31;;;;;;;2.00;1.80;;;;;;;26.59;43.21;100335.88;5017135;28;20464;-52
2023/06/06 09:54:00;;;;;;;2.40;2.20;;;;;;;26.85;42.14;100328.75;5018069;28;20452;-50
2023/06/06 09:56:30;;;;;;;1.67;1.57;;;;;;;26.54;43.44;100321.78;5017908;28;20872;-52
2023/06/06 09:58:59;;;;;;;3.23;2.80;;;;;;;26.24;42.89;100326.38;5018230;28;20449;-52
2023/06/06 10:01:31;;;;;;;1.67;1.57;;;;;;;26.20;43.67;100318.63;5017742;28;20495;-52
2023/06/06 10:03:58;;;;;;;2.03;1.80;;;;;;;26.49;43.94;100324.97;5018087;28;20455;-52
2023/06/06 10:06:26;;;;;;;5.50;2.67;;;;;;;25.94;44.10;100331.94;5000868;28;20879;-52
2023/06/06 10:08:54;;;;;;;2.20;2.10;;;;;;;26.20;43.77;100330.41;5017766;28;20460;-52
2023/06/06 10:11:22;;;;;;;1.37;1.27;;;;;;;26.45;43.14;100322.66;5017681;28;20495;-51
2023/06/06 10:13:49;;;;;;;1.37;1.20;;;;;;;26.77;42.66;100317.75;5000793;28;20488;-52
2023/06/06 10:16:18;;;;;;;4.53;1.53;;;;;;;26.86;41.74;100326.88;5019043;28;20515;-52
2023/06/06 10:18:46;;;;;;;1.40;1.30;;;;;;;27.17;41.84;100327.56;5019145;28;20452;-51
2023/06/06 10:21:17;;;;;;;1.83;1.70;;;;;;;26.74;41.74;100323.50;5018994;28;20500;-51
2023/06/06 10:23:45;;;;;;;1.80;1.70;;;;;;;26.88;41.76;100321.31;5018802;28;20488;-52
2023/06/06 10:26:19;;;;;;;1.90;1.67;;;;;;;27.46;41.68;100319.25;5018009;28;20860;-51
2023/06/06 10:28:57;;;;;;;3.00;1.77;;;;;;;27.37;41.23;100321.00;5018150;28;20519;-52
2023/06/06 10:31:48;;;;;;;3.07;1.87;;;;;;;26.95;39.86;100322.44;5018894;28;20473;-51
2023/06/06 10:34:21;;;;;;;3.23;1.93;;;;;;;26.87;39.36;100325.91;5019136;28;20454;-51
2023/06/06 10:36:48;;;;;;;2.00;1.90;;;;;;;26.49;40.76;100314.06;5018446;28;20457;-52
2023/06/06 10:39:18;;;;;;;1.50;1.40;;;;;;;26.40;39.85;100309.47;5019235;28;20453;-52
2023/06/06 10:41:51;;;;;;;1.50;1.40;;;;;;;27.14;39.85;100303.31;5018022;28;21000;-52
2023/06/06 10:44:53;;;;;;;1.50;1.40;;;;;;;27.80;38.75;100307.69;5018605;28;20452;-52
2023/06/06 10:47:30;;;;;;;3.20;1.43;;;;;;;28.02;37.05;100302.66;5009159;28;20884;-52
2023/06/06 10:50:12;;;;;;;1.87;1.77;;;;;;;26.79;35.17;100306.69;5018387;28;20945;-52
2023/06/06 10:52:49;;;;;;;39.27;2.23;;;;;;;26.65;37.08;100312.59;5018284;28;21044;-52
2023/06/06 10:55:25;;;;;;;1.57;1.47;;;;;;;27.04;36.23;100294.28;5018636;28;20455;-52
2023/06/06 10:58:17;;;;;;;3.87;1.97;;;;;;;27.26;35.67;100293.03;5018837;28;21019;-52
2023/06/06 11:00:46;;;;;;;1.67;1.57;;;;;;;26.97;36.23;100302.16;5019268;28;20528;-51
2023/06/06 11:03:31;;;;;;;1.10;1.00;;;;;;;26.83;36.13;100291.72;5018351;28;20989;-51
2023/06/06 11:06:00;;;;;;;2.10;1.90;;;;;;;27.56;35.97;100294.63;5018962;28;20448;-50
2023/06/06 11:08:41;;;;;;;1.50;1.40;;;;;;;27.86;35.65;100282.50;5018575;28;20511;-51
2023/06/06 11:11:30;;;;;;;1.87;1.77;;;;;;;27.65;35.82;100280.91;5019446;28;20472;-52
2023/06/06 11:14:02;;;;;;;2.30;1.20;;;;;;;26.99;36.90;100288.38;5019249;28;20445;-52
2023/06/06 11:16:38;;;;;;;2.23;2.13;;;;;;;26.60;34.63;100288.50;5020081;28;20479;-51
2023/06/06 11:19:21;;;;;;;1.50;1.40;;;;;;;26.63;34.67;100280.03;5019596;28;20877;-51
2023/06/06 11:21:49;;;;;;;2.23;2.13;;;;;;;26.02;35.48;100283.03;5019172;28;20908;-51
2023/06/06 11:24:20;;;;;;;1.67;1.30;;;;;;;25.94;35.84;100286.50;5018577;28;20459;-51
2023/06/06 11:26:51;;;;;;;1.30;1.20;;;;;;;26.17;36.49;100286.19;5019206;28;20532;-51
2023/06/06 11:29:18;;;;;;;1.87;1.77;;;;;;;26.02;36.95;100288.50;5020122;28;20444;-51
2023/06/06 11:31:45;;;;;;;5.63;2.20;;;;;;;25.68;36.65;100280.72;5018963;28;20476;-51